Time;durP1;ratioP1;P1;durP2;ratioP2;P2;SDS_P1;SDS_P2;PMS_P1;PMS_P2;Temp;Humidity;BMP_temperature;BMP_pressure;BME280_temperature;BME280_humidity;BME280_pressure;Samples;Min_cycle;Max_cycle;Signal;HPM_P1;HPM_P2
2021/01/27 00:00:44;;;;;;;7.72;5.03;;;;;;;2.39;81.83;101532.88;4898630;29;20035;-74
2021/01/27 00:03:09;;;;;;;9.57;5.40;;;;;;;2.54;82.57;101565.44;4909555;29;20047;-82
2021/01/27 00:05:36;;;;;;;10.35;5.43;;;;;;;2.40;82.66;101540.69;4897233;29;20046;-74
2021/01/27 00:08:02;;;;;;;8.38;5.43;;;;;;;2.44;82.33;101551.94;4894956;29;20302;-74
2021/01/27 00:10:28;;;;;;;7.45;5.20;;;;;;;2.53;82.49;101559.31;4882307;29;20324;-74
2021/01/27 00:12:54;;;;;;;8.55;5.45;;;;;;;2.47;83.23;101562.28;4899687;29;20050;-74
2021/01/27 00:15:25;;;;;;;8.90;6.03;;;;;;;2.44;83.19;101559.84;4894176;29;20063;-74
2021/01/27 00:17:50;;;;;;;9.48;5.88;;;;;;;2.48;83.21;101558.72;4884022;29;20499;-74
2021/01/27 00:20:18;;;;;;;9.95;6.53;;;;;;;2.41;83.24;101533.66;4893811;29;20036;-82
2021/01/27 00:22:43;;;;;;;11.73;6.77;;;;;;;2.45;82.97;101541.28;4877705;29;20037;-74
2021/01/27 00:25:09;;;;;;;18.25;8.10;;;;;;;2.52;83.51;101538.31;4882895;29;20119;-74
2021/01/27 00:27:35;;;;;;;11.50;7.13;;;;;;;2.39;83.98;101532.88;4914016;29;20566;-74
2021/01/27 00:30:00;;;;;;;13.63;7.78;;;;;;;2.47;84.18;101529.81;4896326;29;20664;-73
2021/01/27 00:32:28;;;;;;;16.70;7.43;;;;;;;2.21;84.45;101472.34;4901736;29;20054;-73
2021/01/27 00:34:54;;;;;;;12.18;7.65;;;;;;;2.42;85.03;101509.84;4897437;29;20483;-82
2021/01/27 00:37:21;;;;;;;9.88;7.00;;;;;;;2.47;84.49;101509.59;4883892;29;20507;-73
2021/01/27 00:39:46;;;;;;;10.73;6.80;;;;;;;2.36;84.05;101483.84;4894139;29;20032;-73
2021/01/27 00:42:12;;;;;;;9.95;5.93;;;;;;;2.41;84.49;101499.41;4897166;29;20047;-74
2021/01/27 00:44:37;;;;;;;9.88;6.57;;;;;;;2.44;84.85;101510.63;4899592;29;20040;-74
2021/01/27 00:47:03;;;;;;;9.63;6.50;;;;;;;2.37;85.69;101511.91;4893541;29;20826;-73
2021/01/27 00:49:28;;;;;;;9.70;6.88;;;;;;;2.35;86.33;101510.25;4901009;29;20044;-74
2021/01/27 00:51:54;;;;;;;7.65;6.10;;;;;;;2.32;86.62;101508.66;4902379;29;20036;-74
2021/01/27 00:54:19;;;;;;;10.25;7.00;;;;;;;2.31;86.89;101499.03;4892506;29;20090;-74
2021/01/27 00:56:45;;;;;;;8.90;6.50;;;;;;;2.31;86.68;101487.69;4898856;29;20036;-74
2021/01/27 00:59:10;;;;;;;10.30;6.53;;;;;;;2.28;86.46;101486.91;4900594;29;20061;-74
2021/01/27 01:01:36;;;;;;;8.15;6.18;;;;;;;2.30;86.27;101492.06;4898184;29;20028;-74
2021/01/27 01:04:05;;;;;;;12.25;6.88;;;;;;;1.98;87.20;101449.88;4900528;29;20040;-82
2021/01/27 01:06:31;;;;;;;9.05;6.30;;;;;;;2.23;87.05;101481.03;4910392;29;20039;-74
2021/01/27 01:08:56;;;;;;;13.32;7.32;;;;;;;2.21;87.15;101476.78;4901114;29;20064;-74
2021/01/27 01:11:22;;;;;;;10.43;7.10;;;;;;;2.18;87.69;101466.41;4893929;29;20562;-74
2021/01/27 01:13:47;;;;;;;12.95;7.53;;;;;;;2.18;86.91;101461.97;4880478;29;20046;-81
2021/01/27 01:16:13;;;;;;;10.85;8.73;;;;;;;2.16;87.10;101457.72;4898599;29;20043;-74
2021/01/27 01:18:38;;;;;;;11.43;8.68;;;;;;;2.01;87.39;101433.94;4876233;29;20052;-75
2021/01/27 01:21:04;;;;;;;11.93;8.85;;;;;;;2.10;87.76;101440.47;4910777;29;20044;-82
2021/01/27 01:23:29;;;;;;;10.98;9.38;;;;;;;2.17;87.32;101438.38;4904990;29;20032;-73
2021/01/27 01:25:55;;;;;;;16.90;9.77;;;;;;;2.15;88.16;101425.28;4913356;29;20519;-74
2021/01/27 01:28:20;;;;;;;16.35;10.00;;;;;;;1.97;87.95;101385.00;4914186;29;20147;-81
2021/01/27 01:30:46;;;;;;;14.30;10.48;;;;;;;2.06;88.70;101413.47;4898481;29;20032;-74
2021/01/27 01:33:23;;;;;;;16.88;11.00;;;;;;;2.02;88.84;101398.78;4914694;29;20025;-74
2021/01/27 01:35:48;;;;;;;12.90;10.48;;;;;;;2.02;88.69;101395.31;4924222;29;20039;-74
2021/01/27 01:38:14;;;;;;;17.23;11.32;;;;;;;1.80;89.46;101368.38;4888788;29;20390;-74
2021/01/27 01:40:48;;;;;;;15.13;11.27;;;;;;;1.89;89.51;101374.91;4890159;29;20035;-74
2021/01/27 01:43:21;;;;;;;14.05;11.50;;;;;;;1.91;90.01;101380.09;4903821;29;20588;-74
2021/01/27 01:46:20;;;;;;;15.15;11.15;;;;;;;1.87;90.57;101362.75;4898521;29;20052;-74
2021/01/27 01:48:57;;;;;;;18.33;11.65;;;;;;;1.82;90.50;101363.88;4906054;29;20402;-74
2021/01/27 01:51:31;;;;;;;19.65;12.05;;;;;;;1.82;90.86;101377.03;4874841;29;20043;-74
2021/01/27 01:54:00;;;;;;;21.73;14.27;;;;;;;1.71;91.85;101365.38;4912490;29;20530;-76
2021/01/27 01:56:27;;;;;;;18.15;13.35;;;;;;;1.77;91.20;101368.53;4901324;29;20083;-76
2021/01/27 01:58:53;;;;;;;19.65;14.57;;;;;;;1.73;91.22;101353.84;4902074;29;20030;-75
2021/01/27 02:01:20;;;;;;;19.10;13.60;;;;;;;1.72;91.56;101359.19;4905375;29;20322;-75
2021/01/27 02:03:45;;;;;;;20.58;14.18;;;;;;;1.52;91.67;101324.25;4926290;29;20096;-75
2021/01/27 02:06:11;;;;;;;18.08;14.02;;;;;;;1.51;91.34;101319.94;4917483;29;20048;-75
2021/01/27 02:08:38;;;;;;;18.08;13.98;;;;;;;1.44;91.32;101300.16;4917038;29;20040;-75
2021/01/27 02:11:03;;;;;;;18.00;13.32;;;;;;;1.41;91.55;101269.63;4880869;29;20032;-75
2021/01/27 02:13:31;;;;;;;18.70;13.38;;;;;;;1.78;91.75;101320.22;4882664;29;20507;-74
2021/01/27 02:16:20;;;;;;;15.70;13.35;;;;;;;1.73;91.08;101317.00;4896937;29;20044;-75
2021/01/27 02:18:48;;;;;;;16.08;13.35;;;;;;;1.74;91.43;101328.38;4903032;29;20449;-75
2021/01/27 02:21:39;;;;;;;15.50;13.52;;;;;;;1.76;91.57;101335.25;4900776;29;20103;-75
2021/01/27 02:24:26;;;;;;;18.70;13.00;;;;;;;1.87;91.23;101332.03;4914464;29;20306;-75
2021/01/27 02:27:07;;;;;;;17.53;13.83;;;;;;;1.64;91.18;101289.41;4900982;29;20060;-73
2021/01/27 02:29:53;;;;;;;16.77;12.45;;;;;;;1.89;91.00;101330.19;4880789;29;20854;-73
2021/01/27 02:33:17;;;;;;;17.83;12.50;;;;;;;1.92;90.93;101316.00;4907105;29;20035;-73
2021/01/27 02:35:51;;;;;;;16.63;11.93;;;;;;;1.90;90.97;101281.84;4920006;28;20513;-81
2021/01/27 02:38:26;;;;;;;16.92;11.75;;;;;;;1.67;90.09;101239.25;4909374;29;20562;-74
2021/01/27 02:40:54;;;;;;;14.70;10.65;;;;;;;1.85;90.09;101270.72;4882033;29;20079;-74
2021/01/27 02:43:27;;;;;;;14.30;10.80;;;;;;;1.83;90.44;101265.53;4885849;29;20475;-74
2021/01/27 02:45:56;;;;;;;14.60;10.95;;;;;;;1.79;89.84;101268.44;4897218;29;20078;-74
2021/01/27 02:48:31;;;;;;;11.85;9.80;;;;;;;1.79;90.26;101277.19;4897206;29;20111;-75
2021/01/27 02:51:16;;;;;;;13.88;10.23;;;;;;;1.50;90.39;101215.66;4903834;29;20032;-75
2021/01/27 02:53:47;;;;;;;12.88;9.85;;;;;;;1.18;90.26;101176.22;4888162;29;20031;-74
2021/01/27 02:56:23;;;;;;;14.05;10.38;;;;;;;1.79;90.67;101266.66;4884195;29;20028;-74
2021/01/27 02:58:56;;;;;;;13.43;11.18;;;;;;;1.77;90.74;101273.78;4867575;29;20036;-75
2021/01/27 03:01:40;;;;;;;13.52;10.13;;;;;;;1.42;90.97;101217.88;4902402;29;20035;-74
2021/01/27 03:04:17;;;;;;;14.15;11.25;;;;;;;1.78;91.48;101277.25;4910413;29;20039;-74
2021/01/27 03:06:43;;;;;;;14.57;10.70;;;;;;;1.78;91.12;101278.13;4904647;29;20028;-76
2021/01/27 03:09:17;;;;;;;14.40;10.90;;;;;;;1.76;91.72;101271.25;4883852;29;20217;-74
2021/01/27 03:11:42;;;;;;;11.70;9.60;;;;;;;1.55;91.52;101241.72;4892953;29;20399;-74
2021/01/27 03:14:08;;;;;;;12.10;9.80;;;;;;;1.72;91.91;101265.28;4899427;29;20035;-74
2021/01/27 03:16:37;;;;;;;10.88;9.63;;;;;;;1.66;91.60;101241.97;4873626;29;20046;-74
2021/01/27 03:19:18;;;;;;;11.50;10.10;;;;;;;1.10;91.30;101131.06;4883627;29;20071;-74
2021/01/27 03:21:48;;;;;;;12.13;9.43;;;;;;;1.75;91.80;101251.97;4902877;29;20578;-75
2021/01/27 03:24:19;;;;;;;14.02;9.75;;;;;;;1.75;91.75;101254.59;4901351;29;20028;-74
2021/01/27 03:26:58;;;;;;;13.15;9.70;;;;;;;1.78;91.65;101243.91;4902875;29;20059;-74
2021/01/27 03:29:28;;;;;;;9.30;8.30;;;;;;;1.80;91.74;101249.06;4887073;29;20028;-74
2021/01/27 03:31:55;;;;;;;10.55;8.25;;;;;;;1.61;91.73;101192.25;4900595;29;20028;-74
2021/01/27 03:34:24;;;;;;;9.57;8.63;;;;;;;1.79;91.88;101237.72;4870681;29;20036;-74
2021/01/27 03:36:54;;;;;;;9.80;8.68;;;;;;;1.82;90.77;101221.75;4895439;29;20044;-74
2021/01/27 03:39:19;;;;;;;8.75;7.85;;;;;;;1.79;91.58;101214.03;4879085;29;20028;-74
2021/01/27 03:41:50;;;;;;;10.63;8.93;;;;;;;1.76;91.72;101203.69;4884814;29;20035;-74
2021/01/27 03:44:22;;;;;;;8.48;7.57;;;;;;;1.65;92.00;101179.75;4910845;29;20038;-74
2021/01/27 03:46:58;;;;;;;8.95;8.02;;;;;;;1.62;92.15;101167.63;4888214;29;20140;-74
2021/01/27 03:49:34;;;;;;;9.98;7.88;;;;;;;1.76;91.78;101187.88;4879983;29;20048;-75
2021/01/27 03:52:17;;;;;;;9.38;7.82;;;;;;;1.73;91.65;101185.41;4883154;29;20599;-75
2021/01/27 03:54:46;;;;;;;9.70;7.78;;;;;;;1.72;91.68;101188.97;4858553;29;20028;-74
2021/01/27 03:57:19;;;;;;;9.25;7.63;;;;;;;1.74;92.01;101186.28;4901262;29;20024;-74
2021/01/27 03:59:45;;;;;;;8.85;7.68;;;;;;;1.75;91.95;101180.09;4896708;29;20043;-74
2021/01/27 04:02:18;;;;;;;9.40;7.70;;;;;;;1.71;92.43;101173.28;4897561;29;20036;-82
2021/01/27 04:04:44;;;;;;;8.90;8.10;;;;;;;1.66;92.37;101163.03;4903173;29;20024;-75
2021/01/27 04:07:09;;;;;;;9.73;8.60;;;;;;;1.58;92.87;101160.84;4879753;29;20074;-73
2021/01/27 04:09:35;;;;;;;10.10;8.90;;;;;;;1.61;92.90;101155.41;4900310;29;20860;-73
2021/01/27 04:12:00;;;;;;;10.80;8.75;;;;;;;1.56;93.31;101160.06;4916631;29;20054;-73
2021/01/27 04:14:25;;;;;;;10.48;9.45;;;;;;;1.56;93.97;101160.06;4893277;29;20067;-74
2021/01/27 04:16:51;;;;;;;11.65;10.43;;;;;;;1.26;93.94;101118.78;4901805;29;20498;-75
2021/01/27 04:19:16;;;;;;;11.15;10.07;;;;;;;1.55;94.13;101144.38;4899636;29;20044;-74
2021/01/27 04:21:42;;;;;;;12.68;11.35;;;;;;;1.52;94.37;101133.09;4901545;29;20047;-83
2021/01/27 04:24:07;;;;;;;11.70;10.50;;;;;;;1.47;94.42;101121.16;4916247;29;20438;-74
2021/01/27 04:26:35;;;;;;;15.35;11.75;;;;;;;1.45;94.79;101126.47;4914979;29;20036;-74
2021/01/27 04:29:00;;;;;;;12.65;11.35;;;;;;;1.43;94.90;101111.72;4900690;29;20024;-74
2021/01/27 04:31:26;;;;;;;15.02;12.38;;;;;;;1.44;95.20;101114.25;4903941;29;20032;-73
2021/01/27 04:33:51;;;;;;;14.57;12.85;;;;;;;1.27;95.12;101098.63;4893108;29;20032;-75
2021/01/27 04:36:17;;;;;;;15.15;13.35;;;;;;;1.41;95.40;101111.84;4898140;29;20035;-73
2021/01/27 04:38:42;;;;;;;16.20;14.35;;;;;;;1.37;96.28;101111.13;4878239;29;20047;-74
2021/01/27 04:41:08;;;;;;;15.40;13.00;;;;;;;1.42;96.08;101104.78;4882227;29;20563;-82
2021/01/27 04:43:36;;;;;;;14.75;12.93;;;;;;;1.39;95.96;101092.66;4899750;29;20499;-74
2021/01/27 04:46:15;;;;;;;17.00;14.02;;;;;;;1.03;96.04;101044.69;4912136;29;20052;-74
2021/01/27 04:49:07;;;;;;;16.05;14.43;;;;;;;1.41;96.57;101095.19;4893837;29;20090;-75
2021/01/27 04:51:50;;;;;;;16.88;15.18;;;;;;;1.40;96.18;101101.38;4902058;29;20079;-74
2021/01/27 04:54:35;;;;;;;15.93;14.38;;;;;;;1.43;96.36;101093.31;4908056;29;20032;-76
2021/01/27 04:57:07;;;;;;;17.20;15.40;;;;;;;1.43;96.37;101096.78;4902416;29;20048;-74
2021/01/27 04:59:32;;;;;;;18.40;16.50;;;;;;;1.42;96.86;101095.13;4898802;29;20066;-74
2021/01/27 05:02:22;;;;;;;17.42;15.73;;;;;;;1.43;96.78;101086.25;4898228;29;20131;-74
2021/01/27 05:05:14;;;;;;;18.30;16.50;;;;;;;1.45;96.89;101094.91;4888680;29;20557;-74
2021/01/27 05:07:42;;;;;;;19.85;17.75;;;;;;;1.47;97.21;101085.16;4922017;29;20042;-74
2021/01/27 05:10:07;;;;;;;20.15;18.13;;;;;;;1.49;97.20;101075.41;4902661;29;20066;-74
2021/01/27 05:12:49;;;;;;;18.40;16.60;;;;;;;1.53;96.87;101065.53;4882862;29;20024;-74
2021/01/27 05:15:14;;;;;;;19.38;17.42;;;;;;;1.52;96.63;101053.31;4907466;29;20055;-74
2021/01/27 05:17:41;;;;;;;19.92;18.02;;;;;;;1.36;96.71;101027.91;4883824;29;20036;-74
2021/01/27 05:20:07;;;;;;;21.30;18.67;;;;;;;1.52;97.08;101048.06;4902408;29;20043;-74
2021/01/27 05:22:32;;;;;;;20.92;18.73;;;;;;;1.59;96.92;101049.41;4917248;29;20043;-82
2021/01/27 05:24:58;;;;;;;20.80;17.38;;;;;;;1.47;96.86;101034.34;4900861;29;20032;-82
2021/01/27 05:27:29;;;;;;;20.88;18.77;;;;;;;1.68;96.57;101042.78;4903263;29;20222;-74
2021/01/27 05:29:59;;;;;;;20.25;18.13;;;;;;;1.66;96.55;101048.09;4884751;29;20059;-74
2021/01/27 05:32:27;;;;;;;22.75;20.45;;;;;;;1.45;97.07;101025.69;4899132;29;20099;-74
2021/01/27 05:34:54;;;;;;;24.20;21.50;;;;;;;1.60;97.57;101060.78;4909512;29;20048;-74
2021/01/27 05:37:28;;;;;;;23.48;20.98;;;;;;;1.61;97.76;101062.47;4903395;29;20059;-81
2021/01/27 05:40:09;;;;;;;24.25;21.45;;;;;;;1.59;98.24;101044.16;4906057;29;20040;-74
2021/01/27 05:42:35;;;;;;;22.80;20.40;;;;;;;1.59;98.45;101046.78;4918959;29;20115;-74
2021/01/27 05:45:28;;;;;;;22.42;20.20;;;;;;;1.66;98.31;101042.84;4872811;29;20499;-74
2021/01/27 05:47:53;;;;;;;24.83;21.95;;;;;;;1.64;98.11;101041.25;4897214;29;20370;-76
2021/01/27 05:50:22;;;;;;;25.15;22.45;;;;;;;1.66;98.12;101040.22;4902849;29;20523;-74
2021/01/27 05:52:47;;;;;;;24.70;22.20;;;;;;;1.66;97.53;101023.59;4899989;29;20040;-73
2021/01/27 05:55:13;;;;;;;23.58;21.05;;;;;;;1.73;97.59;101040.69;4894153;29;20111;-74
2021/01/27 05:57:39;;;;;;;26.10;23.30;;;;;;;1.72;97.95;101031.09;4886311;29;20693;-74
2021/01/27 06:00:19;;;;;;;26.15;22.98;;;;;;;1.61;98.00;100996.69;4913223;29;20146;-80
2021/01/27 06:02:45;;;;;;;24.98;22.38;;;;;;;1.56;98.03;100996.16;4916096;29;20035;-74
2021/01/27 06:05:14;;;;;;;23.10;20.70;;;;;;;1.77;97.60;101021.16;4911144;29;20099;-74
2021/01/27 06:07:40;;;;;;;24.90;22.27;;;;;;;1.71;97.78;101010.16;4866568;29;20040;-79
2021/01/27 06:10:32;;;;;;;25.95;23.23;;;;;;;1.44;98.03;100966.97;4901703;29;20046;-73
2021/01/27 06:13:20;;;;;;;26.23;22.98;;;;;;;1.76;98.10;101024.72;4899153;29;20463;-73
2021/01/27 06:15:45;;;;;;;;;;;;;;;1.70;98.50;101022.44;4916503;29;20197;-73
2021/01/27 06:18:24;;;;;;;24.70;21.67;;;;;;;1.72;98.03;101014.50;4902932;29;19930;-79
2021/01/27 06:21:17;;;;;;;25.13;22.10;;;;;;;1.74;98.54;101023.16;4895185;29;20028;-73
2021/01/27 06:23:56;;;;;;;24.27;21.33;;;;;;;1.76;98.13;101027.38;4915671;29;20076;-73
2021/01/27 06:26:59;;;;;;;25.88;22.45;;;;;;;1.71;98.32;101011.00;4915628;29;20610;-73
2021/01/27 06:29:39;;;;;;;25.33;22.05;;;;;;;1.73;98.91;101005.66;4886385;29;20028;-73
2021/01/27 06:32:15;;;;;;;21.23;18.33;;;;;;;1.74;98.27;100994.19;4901009;29;20036;-73
2021/01/27 06:34:59;;;;;;;21.52;19.25;;;;;;;1.75;99.02;100994.09;4915027;29;20047;-73
2021/01/27 06:37:36;;;;;;;19.75;17.65;;;;;;;1.72;99.02;100991.63;4908528;29;20447;-72
2021/01/27 06:40:27;;;;;;;20.63;18.10;;;;;;;1.75;99.14;100986.19;4900572;29;20039;-73
2021/01/27 06:43:14;;;;;;;19.38;17.15;;;;;;;1.79;98.55;100998.25;4868496;29;20039;-73
2021/01/27 06:45:58;;;;;;;18.80;16.77;;;;;;;1.79;99.05;100998.25;4881938;29;20060;-72
2021/01/27 06:48:51;;;;;;;16.88;15.18;;;;;;;1.86;98.48;100977.66;4902179;29;20044;-72
2021/01/27 06:51:38;;;;;;;16.42;14.68;;;;;;;1.81;98.37;100956.91;4905652;29;20047;-72
2021/01/27 06:54:16;;;;;;;14.98;13.38;;;;;;;1.79;98.50;100969.28;4913003;29;20114;-77
2021/01/27 06:56:50;;;;;;;15.15;13.65;;;;;;;1.79;98.74;100965.81;4895758;29;20028;-71
2021/01/27 06:59:40;;;;;;;14.15;12.75;;;;;;;1.77;98.63;100955.38;4911185;29;20074;-77
2021/01/27 07:02:29;;;;;;;16.15;14.13;;;;;;;1.72;98.97;100962.69;4896718;29;20167;-77
2021/01/27 07:05:09;;;;;;;16.67;14.98;;;;;;;1.75;98.84;100959.88;4913035;29;20032;-71
2021/01/27 07:08:00;;;;;;;17.98;15.38;;;;;;;1.80;98.84;100955.19;4894553;29;20033;-71
2021/01/27 07:10:47;;;;;;;16.52;14.73;;;;;;;1.79;98.41;100956.13;4900014;29;20028;-71
2021/01/27 07:13:31;;;;;;;15.93;13.85;;;;;;;1.80;98.73;100957.84;4897609;29;20456;-71
2021/01/27 07:16:36;;;;;;;16.02;14.35;;;;;;;1.81;98.71;100979.72;4900612;29;20040;-70
2021/01/27 07:19:01;;;;;;;17.40;14.52;;;;;;;1.77;99.39;100965.03;4899803;29;20127;-71
2021/01/27 07:22:02;;;;;;;16.02;14.30;;;;;;;1.80;99.11;100980.66;4900535;29;20023;-71
2021/01/27 07:24:39;;;;;;;15.48;13.88;;;;;;;1.81;99.08;100990.25;4942421;28;22272;-70
2021/01/27 07:27:14;;;;;;;17.10;15.23;;;;;;;1.73;99.08;100976.72;4884971;29;20029;-77
2021/01/27 07:30:11;;;;;;;18.27;16.02;;;;;;;1.22;99.36;100897.28;4891280;29;20483;-71
2021/01/27 07:32:41;;;;;;;18.88;16.58;;;;;;;1.86;99.10;100987.34;4912807;29;20382;-71
2021/01/27 07:35:24;;;;;;;18.38;16.27;;;;;;;1.75;99.20;100970.41;4901031;29;20574;-71
2021/01/27 07:38:00;;;;;;;20.13;17.92;;;;;;;1.76;99.62;100984.44;4895359;29;20036;-73
2021/01/27 07:40:28;;;;;;;20.77;17.73;;;;;;;1.76;99.49;100976.53;4904784;29;20094;-71
2021/01/27 07:43:22;;;;;;;20.73;18.42;;;;;;;1.79;99.36;100984.22;4904403;29;20169;-75
2021/01/27 07:45:50;;;;;;;21.58;18.92;;;;;;;1.79;99.71;100981.59;4905754;29;20052;-77
2021/01/27 07:48:24;;;;;;;24.30;20.80;;;;;;;1.76;99.71;100985.25;4895946;29;20592;-77
2021/01/27 07:50:56;;;;;;;23.60;20.75;;;;;;;1.82;99.83;100970.88;4908958;29;20044;-70
2021/01/27 07:53:38;;;;;;;27.42;22.50;;;;;;;1.82;99.28;100965.63;4891589;29;20028;-70
2021/01/27 07:56:06;;;;;;;27.08;22.55;;;;;;;1.91;99.76;100977.38;4911062;29;20398;-71
2021/01/27 07:58:47;;;;;;;27.70;23.10;;;;;;;1.93;99.58;100980.78;4912477;29;20079;-70
2021/01/27 08:01:27;;;;;;;30.83;23.85;;;;;;;1.86;100.00;100968.91;4908181;29;20530;-70
2021/01/27 08:04:21;;;;;;;31.70;25.08;;;;;;;1.59;100.00;100928.41;4899234;29;20047;-70
2021/01/27 08:06:50;;;;;;;33.90;26.50;;;;;;;1.80;100.00;100957.84;4909563;29;20107;-71
2021/01/27 08:09:51;;;;;;;40.67;26.92;;;;;;;1.80;100.00;100947.31;4896120;29;20410;-70
2021/01/27 08:12:23;;;;;;;37.42;27.38;;;;;;;1.92;100.00;100972.00;4885039;29;20255;-70
2021/01/27 08:15:08;;;;;;;38.78;27.98;;;;;;;1.80;100.00;100959.59;4909816;29;20067;-77
2021/01/27 08:17:55;;;;;;;39.88;28.90;;;;;;;1.97;100.00;100971.72;4897739;29;20036;-76
2021/01/27 08:20:26;;;;;;;40.92;29.73;;;;;;;1.99;100.00;100975.13;4897484;29;20299;-76
2021/01/27 08:23:02;;;;;;;45.58;31.35;;;;;;;1.97;100.00;100975.22;4898343;29;20100;-71
2021/01/27 08:26:00;;;;;;;43.92;31.38;;;;;;;2.05;100.00;100976.53;4879257;29;20036;-70
2021/01/27 08:28:39;;;;;;;;;;;;;;;2.06;100.00;100978.22;4896591;29;20016;-70
2021/01/27 08:31:07;;;;;;;;;;;;;;;2.04;100.00;100978.31;4901239;29;20414;-71
2021/01/27 08:33:39;;;;;;;;;;;;;;;2.04;100.00;100980.09;4899932;29;19923;-71
2021/01/27 08:36:05;;;;;;;51.83;34.88;;;;;;;2.08;100.00;100976.34;4920381;29;20393;-71
2021/01/27 08:38:31;;;;;;;57.05;37.88;;;;;;;2.15;100.00;100982.94;4895439;29;20312;-71
2021/01/27 08:40:57;;;;;;;54.33;35.88;;;;;;;1.99;100.00;100944.38;4898474;29;20059;-71
2021/01/27 08:43:33;;;;;;;51.30;34.88;;;;;;;2.27;100.00;100976.91;4913926;29;20186;-71
2021/01/27 08:46:05;;;;;;;51.15;34.58;;;;;;;2.30;100.00;100986.38;4912869;29;20082;-71
2021/01/27 08:48:49;;;;;;;52.17;35.53;;;;;;;2.34;100.00;100984.41;4886294;29;20034;-71
2021/01/27 08:51:44;;;;;;;47.60;34.13;;;;;;;2.38;100.00;100989.38;4902262;29;20479;-71
2021/01/27 08:54:45;;;;;;;53.75;35.45;;;;;;;2.35;100.00;100986.97;4901668;29;20044;-70
2021/01/27 08:57:14;;;;;;;51.05;34.55;;;;;;;2.32;100.00;100984.50;4902071;29;20017;-71
2021/01/27 09:00:11;;;;;;;48.05;32.17;;;;;;;2.46;100.00;101004.69;4881199;29;20036;-71
2021/01/27 09:02:59;;;;;;;53.40;33.53;;;;;;;2.14;100.00;100939.94;4904427;29;20064;-71
2021/01/27 09:05:24;;;;;;;45.90;31.08;;;;;;;2.53;100.00;100997.25;4888955;29;20028;-71
2021/01/27 09:07:59;;;;;;;47.50;31.98;;;;;;;2.54;100.00;101001.59;4911484;29;20032;-71
2021/01/27 09:10:27;;;;;;;46.55;31.83;;;;;;;2.33;100.00;100959.00;4904046;29;20031;-70
2021/01/27 09:12:52;;;;;;;45.40;31.30;;;;;;;2.63;100.00;100995.75;4906402;29;20523;-71
2021/01/27 09:15:31;;;;;;;46.63;31.90;;;;;;;2.66;100.00;101007.88;4893591;29;20051;-71
2021/01/27 09:17:57;;;;;;;43.30;29.52;;;;;;;2.32;100.00;100957.31;4877119;29;20241;-71
2021/01/27 09:20:25;;;;;;;43.78;30.52;;;;;;;2.69;100.00;101005.88;4896293;29;20061;-71
2021/01/27 09:22:59;;;;;;;46.30;30.45;;;;;;;2.62;100.00;100993.19;4899264;29;20063;-71
2021/01/27 09:25:25;;;;;;;47.17;31.60;;;;;;;2.50;100.00;100969.31;4878201;29;20672;-71
2021/01/27 09:28:07;;;;;;;48.83;31.40;;;;;;;2.56;100.00;100979.50;4911261;28;20130;-71
2021/01/27 09:30:33;;;;;;;48.58;30.98;;;;;;;2.77;100.00;101017.75;4908916;29;20059;-71
2021/01/27 09:33:12;;;;;;;47.58;31.60;;;;;;;2.83;100.00;101017.34;4900655;29;20495;-71
2021/01/27 09:35:37;;;;;;;48.42;32.30;;;;;;;2.68;100.00;100998.91;4901431;29;20044;-70
2021/01/27 09:38:10;;;;;;;51.70;33.55;;;;;;;2.67;100.00;100985.84;4898899;29;20521;-71
2021/01/27 09:40:38;;;;;;;56.30;33.75;;;;;;;2.80;100.00;101004.34;4896101;29;20043;-71
2021/01/27 09:43:07;;;;;;;52.75;33.75;;;;;;;2.99;100.00;101033.00;4890712;29;20023;-71
2021/01/27 09:45:32;;;;;;;51.90;33.13;;;;;;;3.01;100.00;101033.75;4901382;29;20044;-71
2021/01/27 09:47:58;;;;;;;48.70;33.92;;;;;;;3.05;100.00;101041.34;4893234;29;20380;-71
2021/01/27 09:50:25;;;;;;;57.00;35.30;;;;;;;2.90;100.00;101002.81;4909429;29;20091;-70
2021/01/27 09:52:55;;;;;;;56.45;34.72;;;;;;;2.90;100.00;101002.81;4864234;29;20083;-70
2021/01/27 09:55:21;;;;;;;57.17;36.35;;;;;;;3.10;100.00;101032.31;4886131;29;20024;-71
2021/01/27 09:57:47;;;;;;;58.85;36.78;;;;;;;3.22;100.00;101048.19;4905717;29;20024;-70
2021/01/27 10:00:30;;;;;;;60.08;36.90;;;;;;;3.26;100.00;101055.91;4901634;29;20058;-70
2021/01/27 10:02:56;;;;;;;69.32;39.30;;;;;;;3.27;100.00;101055.81;4887451;29;20035;-70
2021/01/27 10:05:36;;;;;;;61.97;36.08;;;;;;;3.33;100.00;101055.38;4902181;29;20036;-71
2021/01/27 10:08:07;;;;;;;60.70;36.05;;;;;;;3.32;100.00;101053.72;4903100;29;20111;-70
2021/01/27 10:10:33;;;;;;;63.40;36.88;;;;;;;3.36;100.00;101062.28;4889981;29;20123;-71
2021/01/27 10:12:59;;;;;;;66.60;37.63;;;;;;;3.41;100.00;101062.78;4938848;23;20057;-70
2021/01/27 10:15:32;;;;;;;61.38;38.20;;;;;;;3.42;100.00;101059.22;4956835;28;20057;-70
2021/01/27 10:18:09;;;;;;;70.93;39.95;;;;;;;3.27;100.00;101023.28;4959399;28;20035;-71
2021/01/27 10:20:39;;;;;;;69.77;40.37;;;;;;;3.30;100.00;101023.09;4943963;28;20027;-71
2021/01/27 10:23:12;;;;;;;72.40;41.35;;;;;;;3.62;100.00;101070.25;4941718;28;20472;-71
2021/01/27 10:25:41;;;;;;;66.32;40.40;;;;;;;3.68;100.00;101068.03;4962459;28;20125;-71
2021/01/27 10:28:11;;;;;;;75.43;42.60;;;;;;;3.72;100.00;101070.50;4953810;28;20042;-71
2021/01/27 10:30:48;;;;;;;65.90;40.15;;;;;;;3.75;100.00;101076.41;4958583;28;20717;-77
2021/01/27 10:33:38;;;;;;;73.70;39.50;;;;;;;3.85;100.00;101075.78;4957690;28;20070;-77
2021/01/27 10:36:43;;;;;;;72.53;41.95;;;;;;;3.90;100.00;101071.88;4963982;28;20070;-71
2021/01/27 10:39:24;;;;;;;73.80;41.88;;;;;;;3.98;100.00;101069.56;4926548;29;20027;-71
2021/01/27 10:41:52;;;;;;;73.95;40.47;;;;;;;4.11;100.00;101076.66;4942417;28;20043;-70
2021/01/27 10:44:39;;;;;;;68.80;39.03;;;;;;;4.24;100.00;101071.34;4949936;28;20032;-77
2021/01/27 10:47:07;;;;;;;61.28;38.10;;;;;;;4.30;100.00;101073.56;4967128;28;20173;-77
2021/01/27 10:49:44;;;;;;;60.55;38.72;;;;;;;4.38;100.00;101068.59;4964694;28;20026;-77
2021/01/27 10:52:24;;;;;;;66.72;39.38;;;;;;;4.42;100.00;101071.84;4948051;28;20212;-77
2021/01/27 10:55:00;;;;;;;59.63;37.92;;;;;;;4.39;100.00;101077.38;4930480;28;20549;-76
2021/01/27 10:57:26;;;;;;;60.15;36.92;;;;;;;4.38;100.00;101076.53;4961279;28;20031;-72
2021/01/27 10:59:53;;;;;;;58.58;37.88;;;;;;;4.21;100.00;101046.00;4961324;28;20073;-71
2021/01/27 11:02:19;;;;;;;64.78;38.28;;;;;;;4.43;100.00;101074.41;4963086;28;20038;-71
2021/01/27 11:04:44;;;;;;;61.60;38.45;;;;;;;4.42;100.00;101062.16;4965073;28;20041;-72
2021/01/27 11:07:10;;;;;;;65.13;38.17;;;;;;;4.50;100.00;101069.53;4966182;28;20034;-75
2021/01/27 11:09:36;;;;;;;64.32;40.17;;;;;;;4.55;100.00;101061.28;4948968;29;20085;-75
2021/01/27 11:12:01;;;;;;;68.68;39.33;;;;;;;4.63;100.00;101064.22;4956695;28;20536;-75
2021/01/27 11:14:27;;;;;;;67.03;39.25;;;;;;;4.69;100.00;101065.56;4947883;28;20051;-76
2021/01/27 11:16:52;;;;;;;64.22;38.03;;;;;;;4.59;100.00;101031.03;4975047;28;20110;-77
2021/01/27 11:19:18;;;;;;;62.45;36.38;;;;;;;4.84;100.00;101059.19;4974943;28;20117;-76
2021/01/27 11:21:43;;;;;;;60.40;36.72;;;;;;;4.92;100.00;101060.47;4962080;28;20608;-69
2021/01/27 11:24:09;;;;;;;55.88;36.20;;;;;;;4.97;100.00;101064.44;4961845;28;20114;-72
2021/01/27 11:26:35;;;;;;;57.17;34.05;;;;;;;5.03;100.00;101056.06;4967935;28;20482;-71
2021/01/27 11:29:00;;;;;;;52.33;33.53;;;;;;;5.15;100.00;101066.72;4969928;28;20124;-71
2021/01/27 11:31:28;;;;;;;54.95;33.85;;;;;;;5.08;100.00;101045.16;4967057;28;20050;-71
2021/01/27 11:33:54;;;;;;;54.43;31.23;;;;;;;5.24;100.00;101068.69;4955548;28;20034;-70
2021/01/27 11:36:21;;;;;;;55.72;33.22;;;;;;;4.92;100.00;101004.91;4967974;28;20516;-70
2021/01/27 11:38:47;;;;;;;51.33;31.30;;;;;;;5.34;100.00;101059.09;4967670;28;20031;-71
2021/01/27 11:41:13;;;;;;;44.63;29.70;;;;;;;5.28;100.00;101035.75;4956503;28;20038;-70
2021/01/27 11:43:41;;;;;;;45.42;30.25;;;;;;;5.43;99.94;101062.88;4944457;28;20039;-71
2021/01/27 11:46:08;;;;;;;50.50;31.42;;;;;;;5.45;100.00;101057.47;4939293;28;20045;-71